LFRV/VNE METAR and TAF weather

Enter ICAO airport designator
Station Type Date Time Source
LFRV METAR 2021/05/14 14:00 UTC NOAA

LFRV 141400Z AUTO 24012KT 210V300 9999 SCT026 SCT037 BKN190 14/08 Q1013


Station Type Date Time Source
LFRV Decoded METAR 2021/05/14 14:00 UTC NOAA

Station name not available
May 14, 2021 - 10:00 AM EDT / 2021.05.14 1400 UTC
Wind: from the WSW (240 degrees) at 14 MPH (12 KT) (direction variable):0
Visibility: greater than 7 mile(s):0
Sky conditions: mostly cloudy
Temperature: 57 F (14 C)
Dew Point: 46 F (8 C)
Relative Humidity: 67%
Pressure (altimeter): 29.91 in. Hg (1013 hPa)
ob: LFRV 141400Z AUTO 24012KT 210V300 9999 SCT026 SCT037 BKN190 14/08 Q1013
cycle: 14

Station Type Date Time Source
LFRV TAF UTC NOAA

Error!

Example: see airport list